createdAt,value
2023-05-01T00:01:00.362Z,100.00
2023-05-01T00:03:27.786Z,100.00
2023-05-01T00:06:01.580Z,100.00
2023-05-01T00:08:28.613Z,100.00
2023-05-01T00:10:56.143Z,100.00
2023-05-01T00:13:24.610Z,100.00
2023-05-01T00:15:52.504Z,100.00
2023-05-01T00:18:19.819Z,100.00
2023-05-01T00:20:46.736Z,100.00
2023-05-01T00:23:14.092Z,100.00
2023-05-01T00:25:40.971Z,100.00
2023-05-01T00:28:08.061Z,100.00
2023-05-01T00:30:35.869Z,100.00
2023-05-01T00:33:02.797Z,100.00
2023-05-01T00:35:31.611Z,100.00
2023-05-01T00:37:58.843Z,100.00
2023-05-01T00:40:26.188Z,100.00
2023-05-01T00:42:53.213Z,100.00
2023-05-01T00:45:20.621Z,100.00
2023-05-01T00:47:48.237Z,100.00
2023-05-01T00:50:15.301Z,100.00
2023-05-01T00:52:42.750Z,100.00
2023-05-01T00:55:09.931Z,100.00
2023-05-01T00:57:37.369Z,100.00
2023-05-01T01:00:05.682Z,100.00
2023-05-01T01:02:33.371Z,100.00
2023-05-01T01:05:00.398Z,100.00
2023-05-01T01:07:36.429Z,100.00
2023-05-01T01:10:21.710Z,100.00
2023-05-01T01:13:06.864Z,100.00
2023-05-01T01:15:48.413Z,100.00
2023-05-01T01:18:40.725Z,100.00
2023-05-01T01:21:27.736Z,100.00
2023-05-01T01:24:26.515Z,100.00
2023-05-01T01:28:02.472Z,100.00
2023-05-01T01:30:58.582Z,100.00
2023-05-01T01:34:02.414Z,100.00
2023-05-01T01:36:38.144Z,100.00
2023-05-01T01:39:15.292Z,100.00
2023-05-01T01:41:50.325Z,100.00
2023-05-01T01:44:24.905Z,100.00
2023-05-01T01:46:54.694Z,100.00
2023-05-01T01:49:27.060Z,100.00
2023-05-01T01:51:57.042Z,100.00
2023-05-01T01:54:33.467Z,100.00
2023-05-01T01:57:02.848Z,100.00
2023-05-01T01:59:34.747Z,100.00
2023-05-01T02:02:03.673Z,100.00
2023-05-01T02:04:33.205Z,100.00
2023-05-01T02:07:01.714Z,100.00
2023-05-01T02:09:31.476Z,100.00
2023-05-01T02:12:00.568Z,100.00
2023-05-01T02:14:28.366Z,100.00
2023-05-01T02:16:57.564Z,100.00
2023-05-01T02:19:26.586Z,100.00
2023-05-01T02:21:57.915Z,100.00
2023-05-01T02:24:27.932Z,100.00
2023-05-01T02:27:03.563Z,100.00
2023-05-01T02:29:30.848Z,100.00
2023-05-01T02:31:57.835Z,100.00
2023-05-01T02:34:24.781Z,100.00
2023-05-01T02:36:51.992Z,100.00
2023-05-01T02:39:19.154Z,100.00
2023-05-01T02:41:49.290Z,100.00
2023-05-01T02:44:16.763Z,100.00
2023-05-01T02:46:47.417Z,100.00
2023-05-01T02:49:17.107Z,100.00
2023-05-01T02:51:45.364Z,100.00
2023-05-01T02:54:13.702Z,100.00
2023-05-01T02:56:40.625Z,100.00
2023-05-01T02:59:07.725Z,100.00
2023-05-01T03:01:34.721Z,100.00
2023-05-01T03:04:01.985Z,100.00
2023-05-01T03:06:29.812Z,100.00
2023-05-01T03:08:56.834Z,100.00
2023-05-01T03:11:24.632Z,100.00
2023-05-01T03:13:51.540Z,100.00
2023-05-01T03:16:18.897Z,100.00
2023-05-01T03:18:46.224Z,100.00
2023-05-01T03:21:13.291Z,100.00
2023-05-01T03:23:40.635Z,100.00
2023-05-01T03:26:07.968Z,100.00
2023-05-01T03:28:35.059Z,100.00
2023-05-01T03:31:01.971Z,100.00
2023-05-01T03:33:29.065Z,100.00
2023-05-01T03:36:05.833Z,100.00
2023-05-01T03:38:33.509Z,100.00
2023-05-01T03:41:00.526Z,100.00
2023-05-01T03:43:27.508Z,100.00
2023-05-01T03:45:54.607Z,100.00
2023-05-01T03:48:21.845Z,100.00
2023-05-01T03:50:48.695Z,100.00
2023-05-01T03:53:15.638Z,100.00
2023-05-01T03:55:42.980Z,100.00
2023-05-01T03:58:11.058Z,100.00
2023-05-01T04:00:38.146Z,100.00
2023-05-01T04:03:05.597Z,100.00
2023-05-01T04:05:33.638Z,100.00
2023-05-01T04:08:00.576Z,100.00
2023-05-01T04:10:27.532Z,100.00
2023-05-01T04:12:54.398Z,100.00
2023-05-01T04:15:23.065Z,100.00
2023-05-01T04:17:50.343Z,100.00
2023-05-01T04:20:19.355Z,100.00
2023-05-01T04:22:46.249Z,100.00
2023-05-01T04:25:13.128Z,100.00
2023-05-01T04:27:40.168Z,100.00
2023-05-01T04:30:07.918Z,100.00
2023-05-01T04:32:35.807Z,100.00
2023-05-01T04:35:04.192Z,100.00
2023-05-01T04:37:31.502Z,100.00
2023-05-01T04:39:58.597Z,100.00
2023-05-01T04:42:32.261Z,100.00
2023-05-01T04:45:04.366Z,100.00
2023-05-01T04:47:31.669Z,100.00
2023-05-01T04:49:58.743Z,100.00
2023-05-01T04:52:25.788Z,100.00
2023-05-01T04:54:53.301Z,100.00
2023-05-01T04:57:20.260Z,100.00
2023-05-01T04:59:48.045Z,100.00
2023-05-01T05:02:14.939Z,100.00
2023-05-01T05:04:41.915Z,100.00
2023-05-01T05:07:09.654Z,100.00
2023-05-01T05:09:36.647Z,100.00
2023-05-01T05:12:04.930Z,100.00
2023-05-01T05:14:31.970Z,100.00
2023-05-01T05:16:58.978Z,100.00
2023-05-01T05:19:26.507Z,100.00
2023-05-01T05:21:53.380Z,100.00
2023-05-01T05:24:20.317Z,100.00
2023-05-01T05:26:47.301Z,100.00
2023-05-01T05:29:14.610Z,100.00
2023-05-01T05:31:41.692Z,100.00
2023-05-01T05:34:08.751Z,100.00
2023-05-01T05:36:36.243Z,100.00
2023-05-01T05:39:03.822Z,100.00
2023-05-01T05:41:30.800Z,100.00
2023-05-01T05:43:57.946Z,100.00
2023-05-01T05:46:25.281Z,100.00
2023-05-01T05:48:52.891Z,100.00
2023-05-01T05:51:19.838Z,100.00
2023-05-01T05:53:47.131Z,100.00
2023-05-01T05:56:14.412Z,100.00
2023-05-01T05:58:41.364Z,100.00
2023-05-01T06:01:09.789Z,100.00
2023-05-01T06:03:37.530Z,100.00
2023-05-01T06:06:05.159Z,100.00
2023-05-01T06:08:32.689Z,100.00
2023-05-01T06:10:59.565Z,100.00
2023-05-01T06:13:27.021Z,100.00
2023-05-01T06:15:54.091Z,100.00
2023-05-01T06:18:21.290Z,100.00
2023-05-01T06:20:48.313Z,100.00
2023-05-01T06:23:15.750Z,100.00
2023-05-01T06:25:43.092Z,100.00
2023-05-01T06:28:10.046Z,100.00
2023-05-01T06:30:37.134Z,100.00
2023-05-01T06:33:04.700Z,100.00
2023-05-01T06:35:32.029Z,100.00
2023-05-01T06:38:00.444Z,100.00
2023-05-01T06:40:27.477Z,100.00
2023-05-01T06:42:54.391Z,100.00
2023-05-01T06:45:21.463Z,100.00
2023-05-01T06:47:48.465Z,100.00
2023-05-01T06:50:15.572Z,100.00
2023-05-01T06:52:42.548Z,100.00
2023-05-01T06:55:10.068Z,100.00
2023-05-01T06:57:37.027Z,100.00
2023-05-01T07:00:04.522Z,100.00
2023-05-01T07:02:31.673Z,100.00
2023-05-01T07:04:58.724Z,100.00
2023-05-01T07:07:25.913Z,100.00
2023-05-01T07:09:52.810Z,100.00
2023-05-01T07:12:19.679Z,100.00
2023-05-01T07:14:46.872Z,100.00
2023-05-01T07:17:13.756Z,100.00
2023-05-01T07:19:40.632Z,100.00
2023-05-01T07:22:07.651Z,100.00
2023-05-01T07:24:34.558Z,100.00
2023-05-01T07:27:01.611Z,100.00
2023-05-01T07:29:28.677Z,100.00
2023-05-01T07:31:55.865Z,100.00
2023-05-01T07:34:23.132Z,100.00
2023-05-01T07:36:50.066Z,100.00
2023-05-01T07:39:18.086Z,100.00
2023-05-01T07:41:45.060Z,100.00
2023-05-01T07:44:11.931Z,100.00
2023-05-01T07:46:39.269Z,100.00
2023-05-01T07:49:06.222Z,100.00
2023-05-01T07:51:33.523Z,100.00
2023-05-01T07:54:04.871Z,100.00
2023-05-01T07:56:32.133Z,100.00
2023-05-01T07:58:59.154Z,100.00
2023-05-01T08:01:26.713Z,100.00
2023-05-01T08:03:53.860Z,100.00
2023-05-01T08:06:20.909Z,100.00
2023-05-01T08:08:48.058Z,100.00
2023-05-01T08:11:15.017Z,100.00
2023-05-01T08:13:42.274Z,100.00
2023-05-01T08:16:09.398Z,100.00
2023-05-01T08:18:36.304Z,100.00
2023-05-01T08:21:03.759Z,100.00
2023-05-01T08:23:30.904Z,100.00
2023-05-01T08:25:58.565Z,100.00
2023-05-01T08:28:25.643Z,100.00
2023-05-01T08:30:52.601Z,100.00
2023-05-01T08:33:19.970Z,100.00
2023-05-01T08:35:46.904Z,100.00
2023-05-01T08:38:13.793Z,100.00
2023-05-01T08:40:48.664Z,100.00
2023-05-01T08:43:16.159Z,100.00
2023-05-01T08:45:44.724Z,100.00
2023-05-01T08:48:13.364Z,100.00
2023-05-01T08:50:45.887Z,100.00
2023-05-01T08:53:16.314Z,99.86
2023-05-01T08:55:48.345Z,100.00
2023-05-01T08:58:17.107Z,99.66
2023-05-01T09:00:45.615Z,100.00
2023-05-01T09:03:16.721Z,100.00
2023-05-01T09:05:44.131Z,100.00
2023-05-01T09:08:11.136Z,100.00
2023-05-01T09:10:46.725Z,100.00
2023-05-01T09:13:13.593Z,100.00
2023-05-01T09:15:40.691Z,100.00
2023-05-01T09:18:09.424Z,100.00
2023-05-01T09:20:38.107Z,100.00
2023-05-01T09:23:05.271Z,100.00
2023-05-01T09:25:32.308Z,100.00
2023-05-01T09:27:59.257Z,100.00
2023-05-01T09:30:39.665Z,100.00
2023-05-01T09:33:15.181Z,99.31
2023-05-01T09:35:56.293Z,98.64
2023-05-01T09:38:28.836Z,95.73
2023-05-01T09:41:05.436Z,95.51
2023-05-01T09:43:32.519Z,93.72
2023-05-01T09:46:07.111Z,94.19
2023-05-01T09:48:37.806Z,92.85
2023-05-01T09:51:32.567Z,91.99
2023-05-01T09:54:05.258Z,91.64
2023-05-01T09:56:37.549Z,92.31
2023-05-01T09:59:21.314Z,91.08
2023-05-01T10:01:50.818Z,90.68
2023-05-01T10:04:18.423Z,90.63
2023-05-01T10:06:45.486Z,88.11
2023-05-01T10:09:17.821Z,86.44
2023-05-01T10:11:49.711Z,84.41
2023-05-01T10:14:17.068Z,83.24
2023-05-01T10:16:45.106Z,83.92
2023-05-01T10:19:13.114Z,83.38
2023-05-01T10:21:40.091Z,83.25
2023-05-01T10:24:09.849Z,82.25
2023-05-01T10:26:38.062Z,82.81
2023-05-01T10:29:05.323Z,84.05
2023-05-01T10:31:33.367Z,83.75
2023-05-01T10:34:02.376Z,82.89
2023-05-01T10:36:39.522Z,80.84
2023-05-01T10:39:07.451Z,80.71
2023-05-01T10:41:59.389Z,80.17
2023-05-01T10:44:27.440Z,79.47
2023-05-01T10:46:55.204Z,78.36
2023-05-01T10:49:22.755Z,79.71
2023-05-01T10:52:01.601Z,79.49
2023-05-01T10:54:29.809Z,78.94
2023-05-01T10:57:01.434Z,79.05
2023-05-01T11:00:04.265Z,79.17
2023-05-01T11:02:31.204Z,78.97
2023-05-01T11:04:58.424Z,78.63
2023-05-01T11:07:26.444Z,79.14
2023-05-01T11:09:57.710Z,79.81
2023-05-01T11:12:46.945Z,78.51
2023-05-01T11:15:32.865Z,76.96
2023-05-01T11:18:04.091Z,78.24
2023-05-01T11:20:37.048Z,78.33
2023-05-01T11:23:04.174Z,74.04
2023-05-01T11:25:33.187Z,73.23
2023-05-01T11:28:04.418Z,71.33
2023-05-01T11:30:39.080Z,71.24
2023-05-01T11:33:10.092Z,71.15
2023-05-01T11:35:39.589Z,70.93
2023-05-01T11:38:06.623Z,70.91
2023-05-01T11:40:35.307Z,71.48
2023-05-01T11:43:08.239Z,72.87
2023-05-01T11:45:37.429Z,73.63
2023-05-01T11:48:05.774Z,73.98
2023-05-01T11:50:41.881Z,75.70
2023-05-01T11:53:15.999Z,75.02
2023-05-01T11:55:43.672Z,74.89
2023-05-01T11:58:11.086Z,75.25
2023-05-01T12:00:42.367Z,74.67
2023-05-01T12:03:13.729Z,73.66
2023-05-01T12:09:39.066Z,70.80
2023-05-01T12:12:06.413Z,68.91
2023-05-01T12:14:33.399Z,68.38
2023-05-01T12:17:00.540Z,66.65
2023-05-01T12:19:27.522Z,66.13
2023-05-01T12:22:09.800Z,65.19
2023-05-01T12:24:37.930Z,64.04
2023-05-01T12:27:05.644Z,65.65
2023-05-01T12:29:42.116Z,65.53
2023-05-01T12:32:09.520Z,65.56
2023-05-01T12:34:37.078Z,63.12
2023-05-01T12:38:16.179Z,61.54
2023-05-01T12:40:57.918Z,61.10
2023-05-01T12:43:37.288Z,61.55
2023-05-01T12:46:06.093Z,60.70
2023-05-01T12:48:34.485Z,60.17
2023-05-01T12:51:01.905Z,60.66
2023-05-01T12:53:30.029Z,61.38
2023-05-01T12:56:50.381Z,63.56
2023-05-01T12:59:28.229Z,66.42
2023-05-01T13:02:03.698Z,66.93
2023-05-01T13:04:31.028Z,64.46
2023-05-01T13:06:58.974Z,63.85
2023-05-01T13:09:32.768Z,65.10
2023-05-01T13:12:09.188Z,66.53
2023-05-01T13:14:39.170Z,66.18
2023-05-01T13:17:32.685Z,64.74
2023-05-01T13:20:05.223Z,63.77
2023-05-01T13:22:33.112Z,63.50
2023-05-01T13:25:03.278Z,64.62
2023-05-01T13:27:30.443Z,64.90
2023-05-01T13:30:00.028Z,64.97
2023-05-01T13:32:27.750Z,66.12
2023-05-01T13:34:54.738Z,65.57
2023-05-01T13:37:22.557Z,66.53
2023-05-01T13:39:49.726Z,67.03
2023-05-01T13:42:25.048Z,67.02
2023-05-01T13:44:54.906Z,67.92
2023-05-01T13:47:26.643Z,67.24
2023-05-01T13:49:54.260Z,67.65
2023-05-01T13:52:21.613Z,68.20
2023-05-01T13:54:49.136Z,67.27
2023-05-01T13:57:17.464Z,67.86
2023-05-01T13:59:47.222Z,67.65
2023-05-01T14:02:27.430Z,67.85
2023-05-01T14:04:57.067Z,68.32
2023-05-01T14:07:25.851Z,69.49
2023-05-01T14:10:00.243Z,68.90
2023-05-01T14:12:30.277Z,69.91
2023-05-01T14:14:58.447Z,69.87
2023-05-01T14:17:38.098Z,68.94
2023-05-01T14:20:11.215Z,68.87
2023-05-01T14:22:48.433Z,67.98
2023-05-01T14:25:31.617Z,65.85
2023-05-01T14:28:01.302Z,65.32
2023-05-01T14:30:38.892Z,65.72
2023-05-01T14:33:14.447Z,66.63
2023-05-01T14:35:50.573Z,66.72
2023-05-01T14:38:20.102Z,67.70
2023-05-01T14:40:57.933Z,67.08
2023-05-01T14:43:25.067Z,67.74
2023-05-01T14:45:53.091Z,66.69
2023-05-01T14:48:29.405Z,67.37
2023-05-01T14:50:58.869Z,66.42
2023-05-01T14:53:32.636Z,65.80
2023-05-01T14:56:02.106Z,65.02
2023-05-01T14:58:29.393Z,64.82
2023-05-01T15:00:57.693Z,65.72
2023-05-01T15:03:24.806Z,64.78
2023-05-01T15:05:52.577Z,64.15
2023-05-01T15:08:24.923Z,64.24
2023-05-01T15:10:55.827Z,63.70
2023-05-01T15:13:22.997Z,63.52
2023-05-01T15:15:50.388Z,63.51
2023-05-01T15:18:17.881Z,63.81
2023-05-01T15:20:45.632Z,64.25
2023-05-01T15:23:13.019Z,61.58
2023-05-01T15:25:40.077Z,61.73
2023-05-01T15:28:07.241Z,61.10
2023-05-01T15:30:34.877Z,61.88
2023-05-01T15:33:05.800Z,62.59
2023-05-01T15:35:34.093Z,63.03
2023-05-01T15:38:01.174Z,63.02
2023-05-01T15:40:28.487Z,63.65
2023-05-01T15:42:56.639Z,63.14
2023-05-01T15:45:23.802Z,62.63
2023-05-01T15:47:51.657Z,62.13
2023-05-01T15:50:22.174Z,63.29
2023-05-01T15:52:50.087Z,63.28
2023-05-01T15:55:18.736Z,64.09
2023-05-01T15:57:47.882Z,64.82
2023-05-01T16:00:17.323Z,63.69
2023-05-01T16:02:45.167Z,64.54
2023-05-01T16:05:15.597Z,63.90
2023-05-01T16:07:45.497Z,63.65
2023-05-01T16:10:12.867Z,63.85
2023-05-01T16:12:40.364Z,64.16
2023-05-01T16:15:09.102Z,64.65
2023-05-01T16:17:44.262Z,65.40
2023-05-01T16:20:14.870Z,66.38
2023-05-01T16:22:43.550Z,66.08
2023-05-01T16:25:13.636Z,65.65
2023-05-01T16:27:44.682Z,65.75
2023-05-01T16:30:14.894Z,65.40
2023-05-01T16:32:43.729Z,66.08
2023-05-01T16:35:15.592Z,65.05
2023-05-01T16:37:42.605Z,65.48
2023-05-01T16:40:10.620Z,65.63
2023-05-01T16:42:39.235Z,65.67
2023-05-01T16:45:13.099Z,65.37
2023-05-01T16:47:40.654Z,65.40
2023-05-01T16:50:10.337Z,65.06
2023-05-01T16:52:40.756Z,65.45
2023-05-01T16:55:08.285Z,65.75
2023-05-01T16:57:35.339Z,66.63
2023-05-01T17:00:03.525Z,67.50
2023-05-01T17:02:30.753Z,67.91
2023-05-01T17:04:57.723Z,68.43
2023-05-01T17:07:24.784Z,69.37
2023-05-01T17:09:51.861Z,69.54
2023-05-01T17:12:18.877Z,68.59
2023-05-01T17:14:46.321Z,67.44
2023-05-01T17:17:13.512Z,67.15
2023-05-01T17:19:40.719Z,65.48
2023-05-01T17:22:09.391Z,64.06
2023-05-01T17:24:37.136Z,64.91
2023-05-01T17:27:04.398Z,64.84
2023-05-01T17:29:38.696Z,66.07
2023-05-01T17:32:33.525Z,67.23
2023-05-01T17:35:13.282Z,67.86
2023-05-01T17:37:50.433Z,69.18
2023-05-01T17:40:29.238Z,69.53
2023-05-01T17:43:06.009Z,70.09
2023-05-01T17:45:48.487Z,70.07
2023-05-01T17:48:24.682Z,69.74
2023-05-01T17:51:08.059Z,70.64
2023-05-01T17:54:18.206Z,71.08
2023-05-01T17:56:54.863Z,71.74
2023-05-01T18:00:03.232Z,72.32
2023-05-01T18:02:35.860Z,72.41
2023-05-01T18:05:13.913Z,73.07
2023-05-01T18:07:49.232Z,73.30
2023-05-01T18:10:19.685Z,73.78
2023-05-01T18:12:50.180Z,74.18
2023-05-01T18:15:24.673Z,74.14
2023-05-01T18:17:55.647Z,74.78
2023-05-01T18:20:27.971Z,74.62
2023-05-01T18:23:03.874Z,74.98
2023-05-01T18:25:32.723Z,75.71
2023-05-01T18:28:13.148Z,76.24
2023-05-01T18:31:10.392Z,76.68
2023-05-01T18:33:48.690Z,76.91
2023-05-01T18:36:16.152Z,77.31
2023-05-01T18:38:44.845Z,77.32
2023-05-01T18:41:13.500Z,77.29
2023-05-01T18:43:41.989Z,76.96
2023-05-01T18:46:11.556Z,76.56
2023-05-01T18:48:39.132Z,76.82
2023-05-01T18:51:09.049Z,76.60
2023-05-01T18:53:39.038Z,77.15
2023-05-01T18:56:09.946Z,77.39
2023-05-01T18:58:37.682Z,77.94
2023-05-01T19:01:08.157Z,78.52
2023-05-01T19:03:36.011Z,78.82
2023-05-01T19:06:03.257Z,78.97
2023-05-01T19:08:31.969Z,79.58
2023-05-01T19:10:59.149Z,79.75
2023-05-01T19:13:44.306Z,80.36
2023-05-01T19:16:11.943Z,80.31
2023-05-01T19:18:39.245Z,80.49
2023-05-01T19:21:06.503Z,80.92
2023-05-01T19:23:37.752Z,80.71
2023-05-01T19:26:06.983Z,81.22
2023-05-01T19:28:36.675Z,81.21
2023-05-01T19:31:08.111Z,81.60
2023-05-01T19:33:35.805Z,82.30
2023-05-01T19:36:02.969Z,82.33
2023-05-01T19:38:31.322Z,82.42
2023-05-01T19:40:58.400Z,82.90
2023-05-01T19:43:25.564Z,83.19
2023-05-01T19:45:53.836Z,82.97
2023-05-01T19:48:20.977Z,83.11
2023-05-01T19:50:51.392Z,83.78
2023-05-01T19:53:18.901Z,83.39
2023-05-01T19:55:47.776Z,83.93
2023-05-01T19:58:47.467Z,83.50
2023-05-01T20:01:14.698Z,83.31
2023-05-01T20:03:41.880Z,83.12
2023-05-01T20:06:11.623Z,83.21
2023-05-01T20:08:38.860Z,82.98
2023-05-01T20:11:09.799Z,83.20
2023-05-01T20:13:40.303Z,83.09
2023-05-01T20:16:10.440Z,83.08
2023-05-01T20:18:37.644Z,83.17
2023-05-01T20:21:06.340Z,83.49
2023-05-01T20:23:35.026Z,83.33
2023-05-01T20:26:02.270Z,83.60
2023-05-01T20:28:29.597Z,83.74
2023-05-01T20:30:59.532Z,83.60
2023-05-01T20:33:26.966Z,83.95
2023-05-01T20:35:56.889Z,84.38
2023-05-01T20:38:27.831Z,84.66
2023-05-01T20:40:55.061Z,84.79
2023-05-01T20:43:35.987Z,84.70
2023-05-01T20:46:06.904Z,84.81
2023-05-01T20:48:37.144Z,85.15
2023-05-01T20:51:06.642Z,85.44
2023-05-01T20:53:36.873Z,85.98
2023-05-01T20:56:12.694Z,85.82
2023-05-01T20:58:44.504Z,86.16
2023-05-01T21:01:16.613Z,86.64
2023-05-01T21:03:46.567Z,86.45
2023-05-01T21:06:16.363Z,86.16
2023-05-01T21:08:43.775Z,86.67
2023-05-01T21:11:13.378Z,87.06
2023-05-01T21:13:43.994Z,87.29
2023-05-01T21:16:23.509Z,87.12
2023-05-01T21:18:58.885Z,87.02
2023-05-01T21:21:31.665Z,87.16
2023-05-01T21:24:02.101Z,87.91
2023-05-01T21:26:32.525Z,88.05
2023-05-01T21:29:00.707Z,88.77
2023-05-01T21:31:37.049Z,88.81
2023-05-01T21:34:11.149Z,89.54
2023-05-01T21:36:47.031Z,88.75
2023-05-01T21:39:29.405Z,88.88
2023-05-01T21:41:59.556Z,89.19
2023-05-01T21:44:50.680Z,89.89
2023-05-01T21:47:18.435Z,89.50
2023-05-01T21:49:48.841Z,89.53
2023-05-01T21:52:22.167Z,89.92
2023-05-01T21:55:08.339Z,89.83
2023-05-01T21:57:47.946Z,90.23
2023-05-01T22:00:30.899Z,90.29
2023-05-01T22:03:21.623Z,91.09
2023-05-01T22:05:51.090Z,90.46
2023-05-01T22:08:18.716Z,90.17
2023-05-01T22:10:46.632Z,90.05
2023-05-01T22:13:18.481Z,90.30
2023-05-01T22:15:56.836Z,90.76
2023-05-01T22:18:58.452Z,91.55
2023-05-01T22:25:22.282Z,91.83
2023-05-01T22:32:12.028Z,92.79
2023-05-01T22:38:43.275Z,93.04
2023-05-01T22:45:09.121Z,92.96
2023-05-01T22:51:07.927Z,93.75
2023-05-01T22:53:38.580Z,94.04
2023-05-01T22:56:52.677Z,94.37
2023-05-01T23:03:40.217Z,95.11
2023-05-01T23:14:25.731Z,96.90
2023-05-01T23:24:54.015Z,95.85
2023-05-01T23:41:56.777Z,94.55
2023-05-01T23:48:22.995Z,95.14
2023-05-01T23:54:47.413Z,94.34
